Berkeley Township, New Jersey
Current Conditions -  °F | °C
As of 8:35 PM on Monday 24 Nov 2014 (Local Time) from KMJX Reporting Station
Clear Clear  
Wind Chill: 18°   Ceiling: Unl
Heat Index: 18°   Visibility: 10mi
Dew Point: 15°   Wind: 9mph
Humidity: 83%   Direction: 210°SSW
Pressure: 29.74"   Gusts: 16mph
Location:  39.9559°N, 74.2574°W
Report Text: KMJX 250135Z AUTO 21008G14KT 10SM CLR 18/15 A2974 RMK AO1
Loading
Personal Weather Stations






























Interactive Weather Map New forecast layout! Learn more

10-Day Weather Forecast

Advertisements
Track Severe Weather on mobile